Time;durP1;ratioP1;P1;durP2;ratioP2;P2;SDS_P1;SDS_P2;PMS_P1;PMS_P2;Temp;Humidity;BMP_temperature;BMP_pressure;BME280_temperature;BME280_humidity;BME280_pressure;Samples;Min_cycle;Max_cycle;Signal;HPM_P1;HPM_P2
2021/12/14 00:01:06;;;;;;;;;14.67;11.00;;;;;10.52;67.88;102481.44;6092732;23;45255;-79
2021/12/14 00:03:42;;;;;;;;;14.00;12.00;;;;;10.61;68.21;102494.63;6074848;23;45448;-79
2021/12/14 00:06:26;;;;;;;;;16.00;12.67;;;;;10.59;67.82;102493.78;6093117;23;45431;-79
2021/12/14 00:09:36;;;;;;;;;12.67;9.67;;;;;10.54;68.04;102483.19;6092656;23;45253;-79
2021/12/14 00:18:33;;;;;;;;;14.00;11.00;;;;;10.44;67.78;102486.00;6059002;23;45445;-79
2021/12/14 00:22:05;;;;;;;;;14.00;11.00;;;;;10.53;67.69;102513.38;6061132;23;45418;-79
2021/12/14 00:24:29;;;;;;;;;9.33;8.00;;;;;10.52;67.27;102508.97;6059925;23;45957;-79
2021/12/14 00:27:03;;;;;;;;;11.67;9.00;;;;;10.30;67.08;102475.53;6060757;23;45417;-79
2021/12/14 00:30:21;;;;;;;;;;;;;;;;;;;;;
2021/12/14 00:33:08;;;;;;;;;5.00;4.00;;;;;10.46;66.80;102479.72;6060589;23;61820;-79
2021/12/14 00:36:15;;;;;;;;;10.67;10.67;;;;;10.40;67.50;102474.50;6060904;23;45455;-79
2021/12/14 00:45:04;;;;;;;;;12.00;9.00;;;;;10.31;67.79;102467.53;6055724;23;45259;-79
2021/12/14 00:54:01;;;;;;;;;11.67;9.33;;;;;10.33;67.89;102470.19;6049226;23;45877;-79
2021/12/14 00:56:38;;;;;;;;;8.00;8.00;;;;;10.40;67.60;102492.28;6068343;23;45425;-79
2021/12/14 00:59:15;;;;;;;;;9.67;9.33;;;;;10.33;68.02;102479.06;6093042;23;46159;-79
2021/12/14 01:02:35;;;;;;;;;10.00;8.00;;;;;10.39;67.58;102488.72;6092124;23;45311;-79
2021/12/14 01:05:26;;;;;;;;;13.67;9.33;;;;;10.06;68.19;102432.31;6074535;23;45562;-79
2021/12/14 01:08:07;;;;;;;;;11.67;11.67;;;;;10.36;68.39;102483.44;6065907;23;45357;-79
2021/12/14 01:11:02;;;;;;;;;10.33;8.00;;;;;10.41;68.03;102499.38;6092352;23;45369;-79
2021/12/14 01:13:44;;;;;;;;;10.00;8.67;;;;;10.15;68.66;102447.31;6094894;23;45326;-79
2021/12/14 01:17:05;;;;;;;;;;;;;;;;;;;;;
2021/12/14 01:19:39;;;;;;;;;12.33;11.00;;;;;10.09;69.45;102453.63;6093924;23;60371;-79
2021/12/14 01:25:38;;;;;;;;;11.67;10.00;;;;;10.43;69.48;102518.91;6094536;23;45435;-79
2021/12/14 01:28:44;;;;;;;;;10.33;9.00;;;;;10.45;68.97;102511.75;6090195;23;45435;-79
2021/12/14 01:31:47;;;;;;;;;10.67;9.67;;;;;10.45;69.09;102514.44;6094106;23;45521;-79
2021/12/14 01:34:36;;;;;;;;;9.00;8.33;;;;;10.41;68.80;102515.38;6088392;23;45577;-79
2021/12/14 01:37:26;;;;;;;;;9.67;8.33;;;;;10.49;69.05;102542.81;6093287;23;45484;-79
2021/12/14 01:40:30;;;;;;;;;9.67;9.67;;;;;10.35;68.25;102525.22;6093818;23;45397;-79
2021/12/14 01:43:53;;;;;;;;;9.67;8.00;;;;;10.48;68.67;102551.69;6094624;23;45493;-79
2021/12/14 01:46:41;;;;;;;;;9.33;8.00;;;;;10.48;68.37;102551.69;6093687;23;46518;-79
2021/12/14 01:49:12;;;;;;;;;8.00;6.00;;;;;10.11;68.75;102488.22;6095023;23;45380;-79
2021/12/14 01:51:49;;;;;;;;;7.33;7.33;;;;;10.31;68.51;102523.50;6094134;23;45329;-79
2021/12/14 01:55:03;;;;;;;;;9.67;8.33;;;;;10.50;69.07;102564.09;6094973;23;45254;-79
2021/12/14 01:57:50;;;;;;;;;8.00;8.00;;;;;10.51;68.91;102572.97;6094525;23;47289;-79
2021/12/14 02:00:32;;;;;;;;;11.67;8.67;;;;;10.52;68.95;102585.41;6094293;23;45264;-79
2021/12/14 02:03:26;;;;;;;;;3.33;0.00;;;;;10.49;68.38;102582.81;6094028;23;45384;-79
2021/12/14 02:06:03;;;;;;;;;8.67;7.67;;;;;10.41;68.65;102571.34;6094466;23;45445;-79
2021/12/14 02:08:36;;;;;;;;;9.67;8.00;;;;;10.50;68.79;102603.22;6092816;23;46131;-79
2021/12/14 02:11:47;;;;;;;;;11.00;10.00;;;;;10.47;68.90;102603.25;6093845;23;45272;-79
2021/12/14 02:14:35;;;;;;;;;9.67;9.33;;;;;10.50;68.59;102605.88;6061874;23;45350;-79
2021/12/14 02:17:29;;;;;;;;;10.67;10.00;;;;;10.48;69.14;102607.69;6004823;23;45520;-78
2021/12/14 02:20:20;;;;;;;;;10.00;10.00;;;;;10.47;69.00;102598.81;6004538;23;46479;-79
2021/12/14 02:23:11;;;;;;;;;12.67;9.67;;;;;10.38;69.09;102572.28;5946837;23;45304;-79
2021/12/14 02:32:14;;;;;;;;;14.33;11.67;;;;;10.51;68.55;102549.88;5928359;23;46877;-79
2021/12/14 02:35:26;;;;;;;;;13.67;9.00;;;;;10.34;68.92;102528.78;5948387;23;45467;-79
2021/12/14 02:38:39;;;;;;;;;9.00;7.00;;;;;10.49;68.64;102550.81;5948501;23;45418;-79
2021/12/14 02:41:07;;;;;;;;;13.00;11.00;;;;;10.47;69.13;102560.63;5948508;23;45732;-78
2021/12/14 02:44:08;;;;;;;;;9.00;9.00;;;;;10.45;68.64;102549.97;5943315;23;45401;-79
2021/12/14 02:46:47;;;;;;;;;13.00;13.00;;;;;10.49;68.90;102551.69;5919271;23;45545;-79
2021/12/14 02:52:40;;;;;;;;;13.00;10.00;;;;;10.51;68.59;102552.56;5920236;24;45714;-79
2021/12/14 02:55:37;;;;;;;;;13.67;12.00;;;;;10.42;68.70;102526.03;5997309;23;45979;-79
2021/12/14 02:58:47;;;;;;;;;11.67;11.00;;;;;10.30;68.52;102499.53;5979097;23;45512;-79
2021/12/14 03:04:53;;;;;;;;;15.67;11.67;;;;;10.25;68.51;102475.56;6045723;23;45511;-79
2021/12/14 03:07:54;;;;;;;;;9.33;9.33;;;;;10.28;68.54;102488.91;6061193;23;46251;-79
2021/12/14 03:13:12;;;;;;;;;10.00;9.33;;;;;10.45;68.31;102517.97;6062919;23;45442;-79
2021/12/14 03:16:23;;;;;;;;;14.00;13.00;;;;;10.46;68.09;102534.84;6062177;23;45349;-79
2021/12/14 03:19:06;;;;;;;;;12.00;10.33;;;;;10.47;68.36;102529.50;6036874;23;46068;-79
2021/12/14 03:21:46;;;;;;;;;;;;;;;;;;;;;
2021/12/14 03:24:18;;;;;;;;;11.67;10.00;;;;;10.42;68.11;102509.13;6060616;23;68703;-79
2021/12/14 03:26:52;;;;;;;;;16.33;11.67;;;;;10.47;68.41;102520.63;6062031;23;45585;-79
2021/12/14 03:29:31;;;;;;;;;14.33;13.33;;;;;10.47;68.85;102525.97;6061461;23;46745;-79
2021/12/14 03:32:10;;;;;;;;;14.00;12.33;;;;;10.48;68.84;102523.25;6037589;23;45793;-79
2021/12/14 03:34:45;;;;;;;;;17.33;13.67;;;;;10.50;68.68;102518.78;6060992;23;45288;-79
2021/12/14 03:37:20;;;;;;;;;12.00;10.00;;;;;10.49;68.52;102509.03;6062311;23;45682;-79
2021/12/14 03:40:10;;;;;;;;;17.33;14.00;;;;;10.50;68.48;102515.22;6063500;23;45851;-79
2021/12/14 03:42:47;;;;;;;;;12.00;12.00;;;;;10.41;68.26;102505.59;6093069;23;45276;-79
2021/12/14 03:48:31;;;;;;;;;9.33;9.33;;;;;10.51;68.18;102512.56;6089035;23;45537;-79
2021/12/14 03:51:17;;;;;;;;;10.00;10.00;;;;;10.32;67.60;102479.06;6091759;23;46188;-79
2021/12/14 03:54:05;;;;;;;;;13.00;12.00;;;;;10.42;67.65;102490.47;6092792;23;45319;-79
2021/12/14 03:56:57;;;;;;;;;11.33;8.67;;;;;10.43;67.80;102494.91;6093417;23;45434;-78
2021/12/14 03:59:40;;;;;;;;;12.67;9.33;;;;;10.38;67.75;102484.31;6093533;23;45531;-79
2021/12/14 04:02:47;;;;;;;;;7.67;7.67;;;;;10.20;67.87;102463.22;6093043;23;47312;-79
2021/12/14 04:05:16;;;;;;;;;13.50;12.00;;;;;10.29;67.73;102471.13;6091546;23;45309;-79
2021/12/14 04:08:04;;;;;;;;;13.00;11.00;;;;;10.33;67.95;102486.16;6093624;23;45571;-79
2021/12/14 04:11:10;;;;;;;;;8.00;8.00;;;;;10.06;68.08;102456.31;6093298;23;45805;-79
2021/12/14 04:13:43;;;;;;;;;9.33;9.00;;;;;10.19;68.00;102483.66;6092407;23;46428;-79
2021/12/14 04:19:31;;;;;;;;;13.67;12.67;;;;;10.04;68.16;102471.41;6091889;23;45543;-79
2021/12/14 04:22:30;;;;;;;;;14.00;11.00;;;;;10.25;68.57;102512.00;6093619;23;45413;-79
2021/12/14 04:25:23;;;;;;;;;10.33;9.00;;;;;10.31;68.29;102518.16;6091235;23;46851;-79
2021/12/14 04:28:12;;;;;;;;;11.50;11.00;;;;;10.27;67.98;102512.88;6093007;23;45180;-79
2021/12/14 04:30:45;;;;;;;;;14.33;12.00;;;;;10.31;67.93;102534.16;6093222;23;45462;-79
2021/12/14 04:33:26;;;;;;;;;12.67;10.00;;;;;10.06;68.04;102498.06;6092417;23;45335;-79
2021/12/14 04:36:22;;;;;;;;;10.67;8.33;;;;;10.29;67.91;102546.63;6092015;23;45894;-79
2021/12/14 04:54:07;;;;;;;;;9.00;7.00;;;;;10.21;68.01;102521.84;6094909;23;45323;-79
2021/12/14 04:56:53;;;;;;;;;;;;;;;;;;;;;
2021/12/14 04:59:23;;;;;;;;;6.67;6.00;;;;;10.19;67.88;102531.63;6092511;23;75228;-79
2021/12/14 05:02:19;;;;;;;;;12.00;10.33;;;;;10.19;67.95;102525.44;6092368;23;45378;-80
2021/12/14 05:05:15;;;;;;;;;7.00;7.00;;;;;10.20;67.80;102524.50;6091833;23;45322;-79
2021/12/14 05:11:21;;;;;;;;;8.33;7.00;;;;;10.19;67.61;102536.97;6093431;23;45391;-80
2021/12/14 05:14:43;;;;;;;;;;;;;;;;;;;;;
2021/12/14 05:17:50;;;;;;;;;10.00;8.67;;;;;10.22;67.02;102538.69;6092651;23;68735;-79
2021/12/14 05:23:14;;;;;;;;;10.00;9.00;;;;;10.18;66.97;102528.97;6077290;23;46094;-79
2021/12/14 05:37:14;;;;;;;;;10.33;7.00;;;;;10.14;67.55;102544.13;5919101;24;45515;-79
2021/12/14 05:40:03;;;;;;;;;9.00;9.00;;;;;9.88;67.75;102499.16;5919765;24;45641;-79
2021/12/14 05:43:16;;;;;;;;;11.00;10.00;;;;;10.12;67.62;102545.94;5919948;24;45433;-79
2021/12/14 05:45:58;;;;;;;;;11.33;10.33;;;;;9.89;67.06;102501.81;5920223;24;45501;-79
2021/12/14 05:49:27;;;;;;;;;13.33;10.00;;;;;10.09;67.48;102536.19;5920095;24;45411;-79
2021/12/14 05:52:13;;;;;;;;;15.00;7.67;;;;;10.10;67.34;102545.06;5920089;24;45527;-79
2021/12/14 05:57:56;;;;;;;;;8.00;8.00;;;;;10.04;67.73;102558.47;5921450;24;45340;-79
2021/12/14 06:00:22;;;;;;;;;10.67;8.00;;;;;9.99;67.23;102544.31;5919474;24;45310;-80
2021/12/14 06:03:12;;;;;;;;;10.33;7.33;;;;;9.97;66.98;102541.66;5919036;24;45389;-80
2021/12/14 06:06:21;;;;;;;;;9.33;8.00;;;;;10.01;67.13;102554.06;5918309;24;45388;-80
2021/12/14 06:09:30;;;;;;;;;9.67;8.67;;;;;10.01;67.15;102562.03;5943886;23;45651;-79
2021/12/14 06:12:49;;;;;;;;;12.67;11.33;;;;;9.99;67.05;102571.81;6052014;23;46919;-79
2021/12/14 06:15:51;;;;;;;;;9.33;8.67;;;;;9.97;67.12;102578.94;6060793;23;45520;-79
2021/12/14 06:18:44;;;;;;;;;13.00;9.00;;;;;9.76;66.70;102549.91;6059962;23;45717;-79
2021/12/14 06:21:43;;;;;;;;;9.33;9.33;;;;;9.72;67.18;102543.75;6062372;23;45582;-80
2021/12/14 06:24:22;;;;;;;;;13.67;9.33;;;;;10.02;67.49;102586.88;6062304;23;45255;-79
2021/12/14 06:27:23;;;;;;;;;11.33;9.33;;;;;10.01;67.55;102595.81;6061147;23;45419;-79
2021/12/14 06:30:24;;;;;;;;;11.33;11.33;;;;;10.04;67.24;102587.75;6061964;23;45319;-79
2021/12/14 06:36:48;;;;;;;;;10.33;8.00;;;;;9.92;67.22;102548.84;6014076;23;46030;-79
2021/12/14 06:46:23;;;;;;;;;10.00;8.67;;;;;10.14;66.89;102600.09;5916567;24;45861;-78
2021/12/14 06:49:24;;;;;;;;;12.00;10.00;;;;;10.14;67.13;102594.75;5906101;24;45988;-78
2021/12/14 06:51:58;;;;;;;;;13.33;10.67;;;;;10.10;67.60;102585.03;5913599;24;45444;-79
2021/12/14 06:54:46;;;;;;;;;9.67;7.00;;;;;10.09;67.55;102592.16;5891138;24;45466;-78
2021/12/14 06:57:26;;;;;;;;;8.00;6.67;;;;;9.94;66.73;102566.56;5883156;24;45426;-78
2021/12/14 07:00:06;;;;;;;;;13.33;11.00;;;;;10.18;67.25;102617.78;5890114;24;45389;-78
2021/12/14 07:02:32;;;;;;;;;11.33;11.00;;;;;10.00;66.92;102592.25;5891766;24;45456;-77
2021/12/14 07:05:01;;;;;;;;;13.00;12.00;;;;;10.07;67.24;102603.72;5887261;24;45648;-78
2021/12/14 07:08:01;;;;;;;;;10.67;10.00;;;;;10.26;68.26;102626.59;5891646;24;45554;-78
2021/12/14 07:11:02;;;;;;;;;10.67;10.67;;;;;10.44;66.83;102616.63;5891356;24;46027;-79
2021/12/14 07:14:35;;;;;;;;;12.00;12.00;;;;;10.53;66.08;102613.81;5891488;24;45446;-79
2021/12/14 07:17:27;;;;;;;;;20.67;13.33;;;;;10.60;66.07;102611.97;5891116;24;45429;-78
2021/12/14 07:19:58;;;;;;;;;13.33;10.33;;;;;10.61;65.59;102603.97;5936563;23;45305;-79
2021/12/14 07:22:32;;;;;;;;;13.33;11.67;;;;;10.62;65.48;102610.16;6013025;23;45627;-79
2021/12/14 07:25:36;;;;;;;;;14.00;12.00;;;;;10.59;65.53;102616.41;6091354;23;45430;-79
2021/12/14 07:28:38;;;;;;;;;11.67;11.00;;;;;10.57;65.93;102618.22;6093480;23;45316;-78
2021/12/14 07:31:25;;;;;;;;;13.33;12.33;;;;;10.57;65.78;102608.44;6086895;23;45501;-79
2021/12/14 07:40:01;;;;;;;;;13.33;11.33;;;;;10.48;65.90;102597.03;6092470;23;45256;-83
2021/12/14 07:42:27;;;;;;;;;13.33;12.00;;;;;10.43;65.84;102596.19;6089542;23;45871;-84
2021/12/14 07:47:59;;;;;;;;;12.33;11.67;;;;;10.60;65.64;102631.50;6079346;23;45558;-85
2021/12/14 07:54:37;;;;;;;;;13.00;12.67;;;;;10.60;65.83;102614.63;6092722;23;45433;-85
2021/12/14 08:01:04;;;;;;;;;17.67;17.00;;;;;10.08;65.66;102554.88;6001331;23;45498;-90
2021/12/14 08:03:55;;;;;;;;;26.33;23.00;;;;;9.98;66.90;102623.34;6001946;23;45294;-89
2021/12/14 08:06:23;;;;;;;;;23.00;21.00;;;;;9.78;66.87;102574.75;6003659;23;45557;-90
2021/12/14 08:08:56;;;;;;;;;36.00;33.75;;;;;10.38;66.95;102665.56;6002356;23;46487;-89
2021/12/14 08:11:47;;;;;;;;;17.67;14.67;;;;;10.38;66.84;102649.56;6003272;23;45443;-90
2021/12/14 08:14:44;;;;;;;;;15.67;15.33;;;;;10.31;66.31;102637.22;6004278;23;45538;-89
2021/12/14 08:17:28;;;;;;;;;18.33;16.33;;;;;9.88;66.83;102630.56;6004594;23;45413;-90
2021/12/14 08:19:59;;;;;;;;;12.33;10.00;;;;;9.70;67.87;102628.97;5978674;23;47162;-89
2021/12/14 08:23:29;;;;;;;;;15.00;13.67;;;;;10.16;67.64;102686.22;6005186;23;45272;-87
2021/12/14 08:25:48;;;;;;;;;20.00;18.67;;;;;9.60;68.50;102640.59;5997513;23;45344;-81
2021/12/14 08:29:07;;;;;;;;;26.00;20.33;;;;;9.86;68.17;102644.81;5979070;23;45337;-82
2021/12/14 08:32:02;;;;;;;;;21.33;20.00;;;;;10.42;67.02;102685.97;5918920;24;45650;-81
2021/12/14 08:37:29;;;;;;;;;31.33;28.00;;;;;10.65;66.04;102691.03;5924395;23;45506;-84
2021/12/14 08:40:02;;;;;;;;;20.67;20.00;;;;;10.71;65.83;102685.59;5947670;23;45450;-84
2021/12/14 08:45:54;;;;;;;;;26.67;20.00;;;;;10.77;65.66;102684.66;5930687;23;45530;-88
2021/12/14 08:49:15;;;;;;;;;28.00;23.00;;;;;10.60;65.80;102652.84;5976636;23;45491;-88
2021/12/14 08:51:44;;;;;;;;;28.67;24.00;;;;;10.08;65.65;102579.72;5976085;23;45434;-90
2021/12/14 08:55:01;;;;;;;;;52.00;42.00;;;;;10.75;65.59;102686.44;5977222;23;46129;-88
2021/12/14 08:57:40;;;;;;;;;59.50;47.50;;;;;9.83;65.30;102525.88;5953181;23;45545;-88
2021/12/14 09:00:20;;;;;;;;;42.00;33.00;;;;;10.87;65.46;102694.28;5978833;23;45440;-92
2021/12/14 09:02:58;;;;;;;;;21.33;17.67;;;;;10.20;65.19;102577.81;5978985;23;45380;-89
2021/12/14 09:05:49;;;;;;;;;19.00;16.00;;;;;10.21;65.24;102568.91;5976843;23;45300;-90
2021/12/14 09:08:19;;;;;;;;;40.00;31.50;;;;;10.94;65.18;102677.28;5953700;23;45422;-91
2021/12/14 09:10:50;;;;;;;;;16.33;15.33;;;;;10.95;64.96;102676.34;5972908;23;45359;-90
2021/12/14 09:13:53;;;;;;;;;17.33;16.33;;;;;10.57;65.25;102608.44;6096363;23;45213;-90
2021/12/14 09:16:31;;;;;;;;;16.67;15.67;;;;;10.56;65.05;102612.00;6068723;23;47537;-90
2021/12/14 09:19:03;;;;;;;;;17.00;14.67;;;;;10.95;64.66;102684.34;6068919;23;45360;-89
2021/12/14 09:21:37;;;;;;;;;19.00;17.00;;;;;10.96;64.90;102710.16;6068337;23;45332;-90
2021/12/14 09:24:07;;;;;;;;;18.67;16.00;;;;;10.97;65.09;102695.03;6096108;23;45474;-88
2021/12/14 09:30:32;;;;;;;;;29.00;27.33;;;;;10.31;64.58;102579.47;6090626;23;45330;-89
2021/12/14 09:33:01;;;;;;;;;18.00;15.00;;;;;10.51;64.21;102624.53;6089734;23;45249;-90
2021/12/14 09:35:53;;;;;;;;;16.67;15.00;;;;;10.30;64.85;102572.38;6095656;23;45523;-90
2021/12/14 09:41:53;;;;;;;;;20.67;18.00;;;;;10.75;64.30;102643.78;6095816;23;45217;-89
2021/12/14 09:44:37;;;;;;;;;20.00;18.33;;;;;11.06;64.58;102707.38;6095527;23;45328;-90
2021/12/14 09:47:19;;;;;;;;;22.67;20.33;;;;;10.66;64.73;102630.56;6067631;23;45284;-91
2021/12/14 09:50:05;;;;;;;;;22.00;21.00;;;;;10.75;64.49;102649.97;6068467;23;48605;-90
2021/12/14 09:52:43;;;;;;;;;26.33;22.00;;;;;10.82;64.73;102657.91;6068925;23;45791;-91
2021/12/14 09:55:20;;;;;;;;;18.00;17.33;;;;;11.15;64.50;102715.25;6096945;23;45105;-91
2021/12/14 09:58:06;;;;;;;;;16.33;16.00;;;;;11.16;64.60;102709.84;6095852;23;45177;-89
2021/12/14 10:00:37;;;;;;;;;21.33;17.67;;;;;11.17;63.97;102716.97;6096479;23;46223;-91
2021/12/14 10:03:10;;;;;;;;;21.00;20.00;;;;;10.52;64.54;102606.75;6070086;23;45218;-92
2021/12/14 10:05:46;;;;;;;;;21.67;19.00;;;;;11.09;64.50;102700.19;6068614;23;45350;-91
2021/12/14 10:08:34;;;;;;;;;18.67;17.33;;;;;11.25;64.55;102715.97;6070393;23;45308;-91
2021/12/14 10:11:36;;;;;;;;;17.00;15.67;;;;;10.92;64.82;102656.88;6064457;23;47876;-90
2021/12/14 10:14:05;;;;;;;;;20.33;19.33;;;;;11.03;64.09;102673.59;6094154;23;45364;-91
2021/12/14 10:16:31;;;;;;;;;18.33;17.00;;;;;10.98;64.35;102656.78;6067481;23;45362;-90
2021/12/14 10:19:19;;;;;;;;;17.33;17.33;;;;;11.36;64.14;102714.91;6094636;23;45345;-90
2021/12/14 10:22:01;;;;;;;;;19.33;15.33;;;;;11.40;64.13;102719.31;6064723;23;47223;-91
2021/12/14 10:24:48;;;;;;;;;24.33;22.00;;;;;11.32;63.82;102697.16;6088656;23;45244;-90
2021/12/14 10:30:14;;;;;;;;;19.33;19.00;;;;;11.49;63.97;102715.59;6094737;23;45317;-88
2021/12/14 10:33:23;;;;;;;;;26.33;17.67;;;;;11.47;64.31;102708.50;6093495;23;46249;-89
2021/12/14 10:35:54;;;;;;;;;23.67;18.33;;;;;11.55;63.65;102714.63;6093848;23;45330;-90
2021/12/14 10:45:18;;;;;;;;;25.00;23.00;;;;;11.61;63.77;102717.19;6090546;23;45641;-91
2021/12/14 10:47:52;;;;;;;;;26.67;25.00;;;;;11.62;63.58;102717.16;6067371;23;45357;-90
2021/12/14 10:50:26;;;;;;;;;26.00;23.00;;;;;10.91;64.07;102588.38;6067738;23;45357;-90
2021/12/14 10:53:20;;;;;;;;;26.33;23.00;;;;;11.05;63.31;102613.09;6093911;23;45343;-91
2021/12/14 10:56:30;;;;;;;;;23.33;22.33;;;;;11.62;63.56;102702.94;6092129;23;46136;-89
2021/12/14 10:59:07;;;;;;;;;23.67;21.67;;;;;11.51;63.58;102680.84;6060105;23;45577;-91
2021/12/14 11:01:49;;;;;;;;;27.67;26.00;;;;;11.59;63.85;102689.66;6060976;23;45504;-89
2021/12/14 11:04:26;;;;;;;;;23.67;21.33;;;;;11.10;63.74;102613.91;6037219;23;45606;-88
2021/12/14 11:07:24;;;;;;;;;23.67;19.33;;;;;11.79;63.55;102714.22;6059748;23;45513;-89
2021/12/14 11:10:11;;;;;;;;;22.00;21.67;;;;;11.60;63.36;102691.41;6041552;23;45341;-91
2021/12/14 11:12:49;;;;;;;;;22.00;20.67;;;;;11.81;62.98;102711.53;6062442;23;45506;-89
2021/12/14 11:18:42;;;;;;;;;21.00;19.67;;;;;11.47;63.62;102656.00;6055626;23;45331;-90
2021/12/14 11:24:35;;;;;;;;;23.67;20.00;;;;;11.33;63.35;102621.53;6062774;23;45501;-89
2021/12/14 11:27:22;;;;;;;;;19.33;17.33;;;;;11.83;63.15;102701.69;6062830;23;45604;-92
2021/12/14 11:30:23;;;;;;;;;156.67;137.67;;;;;11.62;63.19;102663.75;6085968;23;48108;-87
2021/12/14 11:33:26;;;;;;;;;23.67;23.67;;;;;11.78;63.43;102688.41;6093499;23;45318;-90
2021/12/14 11:35:58;;;;;;;;;23.67;21.00;;;;;11.90;63.29;102706.06;6067526;23;45570;-92
2021/12/14 11:42:35;;;;;;;;;22.33;21.00;;;;;11.96;63.27;102702.38;6093187;23;45310;-90
2021/12/14 11:45:07;;;;;;;;;20.33;20.33;;;;;11.80;62.98;102664.34;6093845;23;45312;-90
2021/12/14 11:48:17;;;;;;;;;23.67;20.67;;;;;11.66;63.00;102642.31;6094727;23;45335;-89
2021/12/14 11:50:51;;;;;;;;;22.67;21.67;;;;;12.02;63.00;102695.13;6093561;23;45561;-90
2021/12/14 11:53:22;;;;;;;;;21.67;21.33;;;;;11.51;63.09;102596.28;6068579;23;47635;-89
2021/12/14 11:59:30;;;;;;;;;25.00;22.67;;;;;11.48;63.09;102583.00;6032180;23;45416;-89
2021/12/14 12:01:58;;;;;;;;;25.33;22.67;;;;;11.30;62.58;102549.50;6032393;23;45450;-89
2021/12/14 12:04:43;;;;;;;;;27.00;19.33;;;;;12.08;62.85;102680.78;6034031;23;46158;-90
2021/12/14 12:10:03;;;;;;;;;20.33;20.00;;;;;11.61;62.84;102595.22;6034412;23;45271;-91
2021/12/14 12:13:16;;;;;;;;;23.33;21.67;;;;;12.15;63.42;102671.75;6034340;23;45404;-91
2021/12/14 12:15:44;;;;;;;;;41.50;36.00;;;;;11.78;62.80;102589.56;6030141;23;46714;-90
2021/12/14 12:18:10;;;;;;;;;29.67;26.67;;;;;11.50;62.30;102557.16;6032460;23;45348;-90
2021/12/14 12:20:39;;;;;;;;;26.00;24.00;;;;;12.20;62.64;102677.88;6008658;23;45374;-90
2021/12/14 12:23:31;;;;;;;;;25.33;24.33;;;;;11.71;63.10;102590.59;6032533;23;45420;-90
2021/12/14 12:26:03;;;;;;;;;28.33;25.33;;;;;11.74;62.94;102601.22;6008349;23;47257;-90
2021/12/14 12:28:33;;;;;;;;;28.67;25.00;;;;;11.65;62.15;102558.66;6033947;23;45464;-90
2021/12/14 12:31:27;;;;;;;;;26.67;23.67;;;;;12.29;62.66;102668.81;6010907;23;45336;-88
2021/12/14 12:40:05;;;;;;;;;30.67;26.00;;;;;11.97;62.31;102583.91;6070458;23;45699;-90
2021/12/14 12:42:49;;;;;;;;;23.67;23.67;;;;;12.32;62.00;102654.50;6094136;23;45253;-91
2021/12/14 12:45:50;;;;;;;;;26.00;25.33;;;;;11.99;62.42;102588.31;6068555;23;45359;-91
2021/12/14 12:52:32;;;;;;;;;29.00;26.00;;;;;12.30;62.48;102617.06;6014032;23;45486;-90
2021/12/14 12:55:30;;;;;;;;;25.67;23.00;;;;;12.55;62.06;102652.22;5981108;23;45249;-91
2021/12/14 12:58:10;;;;;;;;;24.33;23.33;;;;;12.58;62.60;102648.59;6005229;23;45580;-90
2021/12/14 13:01:37;;;;;;;;;28.33;27.00;;;;;12.34;62.69;102608.09;6005285;23;47157;-91
2021/12/14 13:04:25;;;;;;;;;24.67;23.00;;;;;12.26;62.94;102583.28;6002422;23;45434;-89
2021/12/14 13:07:13;;;;;;;;;30.00;27.33;;;;;12.49;62.29;102606.00;6004187;23;45299;-90
2021/12/14 13:10:12;;;;;;;;;32.67;26.67;;;;;12.76;61.91;102642.84;5981501;23;45564;-90
2021/12/14 13:13:27;;;;;;;;;28.33;24.00;;;;;12.64;62.16;102622.59;6003589;23;45651;-88
2021/12/14 13:16:06;;;;;;;;;30.00;25.50;;;;;12.83;62.17;102643.56;5920401;24;45341;-88
2021/12/14 13:18:40;;;;;;;;;31.67;25.33;;;;;12.87;62.33;102642.56;5920653;24;45418;-88
2021/12/14 13:28:13;;;;;;;;;25.33;25.33;;;;;12.90;62.28;102655.91;5814880;24;45493;-89
2021/12/14 13:30:54;;;;;;;;;27.67;21.33;;;;;12.88;61.90;102653.25;5838150;24;45495;-89
2021/12/14 13:33:39;;;;;;;;;;;;;;;;;;;;;
2021/12/14 13:36:47;;;;;;;;;28.00;24.33;;;;;12.86;61.82;102647.06;5892216;24;74058;-90
2021/12/14 13:39:24;;;;;;;;;64.00;49.75;;;;;12.79;61.26;102642.75;5869162;24;45397;-89
2021/12/14 13:42:42;;;;;;;;;44.67;36.00;;;;;12.50;61.46;102605.94;5894012;24;45499;-89
2021/12/14 13:45:24;;;;;;;;;;;;;;;;;;;;;
2021/12/14 13:47:55;;;;;;;;;27.00;25.00;;;;;12.70;61.41;102631.38;5892211;24;73837;-89
2021/12/14 14:04:14;;;;;;;;;33.33;30.00;;;;;12.84;61.70;102658.72;5865420;24;45516;-88
2021/12/14 14:07:00;;;;;;;;;28.67;26.67;;;;;12.60;61.79;102626.25;5970021;23;45406;-89
2021/12/14 14:09:55;;;;;;;;;29.00;27.67;;;;;12.81;62.11;102666.81;5976926;23;45640;-90
2021/12/14 14:13:08;;;;;;;;;34.00;31.00;;;;;12.42;62.99;102595.41;5963655;23;45538;-90
2021/12/14 14:19:14;;;;;;;;;32.00;30.67;;;;;12.74;63.15;102646.47;5865105;24;45622;-89
2021/12/14 14:25:28;;;;;;;;;31.00;29.33;;;;;12.83;62.65;102662.28;5706850;25;45503;-89
2021/12/14 14:28:02;;;;;;;;;38.67;32.00;;;;;12.81;63.34;102667.69;5708720;25;45347;-89
2021/12/14 14:31:10;;;;;;;;;31.33;30.67;;;;;12.83;62.96;102668.53;5707440;25;45443;-88
2021/12/14 14:37:42;;;;;;;;;34.00;26.67;;;;;12.82;62.31;102669.44;5660819;25;45376;-89
2021/12/14 14:44:04;;;;;;;;;29.67;27.33;;;;;12.83;62.58;102668.53;5656999;25;45448;-89
2021/12/14 14:47:05;;;;;;;;;33.33;25.67;;;;;12.83;62.52;102676.56;5657721;25;45457;-89
2021/12/14 14:53:40;;;;;;;;;34.67;30.67;;;;;12.79;62.84;102663.28;5747133;24;45586;-89
2021/12/14 14:57:00;;;;;;;;;32.00;29.00;;;;;12.77;62.76;102667.78;5807718;24;45553;-89
2021/12/14 15:00:02;;;;;;;;;34.67;29.67;;;;;12.68;62.86;102651.00;5840313;24;45595;-90
2021/12/14 15:02:55;;;;;;;;;32.67;26.67;;;;;12.75;62.69;102662.47;5949523;23;45466;-90
2021/12/14 15:09:23;;;;;;;;;34.33;29.67;;;;;12.52;62.60;102636.22;5882837;24;45645;-90
2021/12/14 15:12:16;;;;;;;;;28.33;28.00;;;;;12.25;62.92;102587.75;6003046;23;45672;-92
2021/12/14 15:15:52;;;;;;;;;31.00;29.33;;;;;12.71;62.79;102667.91;5985650;23;45929;-91
2021/12/14 15:18:52;;;;;;;;;36.00;31.67;;;;;12.45;63.46;102672.94;5864572;24;45291;-80
2021/12/14 15:21:51;;;;;;;;;32.33;29.67;;;;;12.31;64.11;102674.09;5863384;24;45440;-81
2021/12/14 15:31:11;;;;;;;;;31.67;29.33;;;;;12.41;63.71;102676.56;5863159;24;45392;-82
2021/12/14 15:37:39;;;;;;;;;;;;;;;;;;;;;
2021/12/14 15:40:34;;;;;;;;;32.00;30.00;;;;;12.45;64.03;102674.69;5861671;24;73980;-81
2021/12/14 15:46:42;;;;;;;;;32.00;29.67;;;;;12.42;63.79;102670.28;5909112;24;45446;-81
2021/12/14 15:52:19;;;;;;;;;29.00;29.00;;;;;12.40;62.92;102658.75;5937868;23;46088;-81
2021/12/14 15:54:57;;;;;;;;;37.00;29.67;;;;;12.33;63.39;102650.88;6024479;23;45387;-81
2021/12/14 15:57:24;;;;;;;;;31.67;29.67;;;;;12.24;63.73;102667.97;6064195;23;45623;-81
2021/12/14 16:00:09;;;;;;;;;33.00;31.33;;;;;12.31;64.09;102661.59;6091461;23;45623;-82
2021/12/14 16:02:43;;;;;;;;;34.00;31.00;;;;;12.47;63.31;102683.56;6089836;23;45448;-82
2021/12/14 16:11:44;;;;;;;;;33.67;31.67;;;;;12.51;63.19;102666.56;6092473;23;45580;-86
2021/12/14 16:17:32;;;;;;;;;30.67;27.67;;;;;12.29;62.94;102634.03;6093429;23;45307;-86
2021/12/14 16:20:03;;;;;;;;;27.00;27.00;;;;;12.36;62.98;102633.00;6061785;23;45550;-88
2021/12/14 16:23:02;;;;;;;;;29.00;26.33;;;;;12.29;63.71;102618.00;6092603;23;45343;-86
2021/12/14 16:29:05;;;;;;;;;26.67;26.33;;;;;12.42;62.52;102654.25;6069959;23;45317;-86
2021/12/14 16:31:43;;;;;;;;;30.00;28.67;;;;;12.61;62.54;102683.28;6089650;23;45438;-86
2021/12/14 16:34:25;;;;;;;;;32.33;29.33;;;;;12.42;63.00;102656.91;6094315;23;45266;-87
2021/12/14 16:47:23;;;;;;;;;33.33;30.00;;;;;12.33;63.07;102657.09;6063143;23;45470;-88
2021/12/14 16:50:01;;;;;;;;;30.00;28.00;;;;;12.23;62.89;102629.69;6061940;23;45490;-86
2021/12/14 16:56:00;;;;;;;;;29.00;27.33;;;;;12.55;63.51;102687.00;6004201;23;45314;-85
2021/12/14 16:58:29;;;;;;;;;26.67;22.00;;;;;12.64;62.99;102705.53;6005219;23;45306;-85